Pinckney, Michigan
Current Conditions -  °F | °C
As of 6:55 AM on Thursday 27 Nov 2014 (Local Time) from KOZW Reporting Station
Overcast Overcast  
Wind Chill: 22°   Ceiling: 2600
Heat Index: 28°   Visibility: 10mi
Dew Point: 22°   Wind: 6mph
Humidity: 79%   Direction: 290°WNW
Pressure: 30.11"   Gusts: NA
Location:  42.46°N, 83.95°W
Report Text: KOZW 271155Z AUTO 29005KT 10SM SCT021 BKN026 OVC033 M02/M05 A3011 RMK AO2 T10231055 11021 21038
Loading
Personal Weather Stations






























Interactive Weather Map New forecast layout! Learn more

10-Day Weather Forecast

Advertisements
Track Severe Weather on mobile